createdAt,value
2018-02-21T00:00:20.194Z,2.70
2018-02-21T00:02:48.524Z,2.70
2018-02-21T00:05:16.575Z,2.70
2018-02-21T00:07:44.732Z,2.70
2018-02-21T00:10:12.296Z,2.70
2018-02-21T00:12:41.457Z,2.70
2018-02-21T00:15:09.630Z,2.60
2018-02-21T00:17:37.361Z,2.70
2018-02-21T00:20:05.749Z,2.80
2018-02-21T00:22:33.351Z,2.80
2018-02-21T00:25:01.535Z,2.80
2018-02-21T00:27:29.090Z,2.80
2018-02-21T00:29:58.315Z,2.70
2018-02-21T00:32:26.247Z,2.70
2018-02-21T00:34:53.797Z,2.80
2018-02-21T00:37:23.678Z,2.80
2018-02-21T00:39:52.080Z,2.80
2018-02-21T00:42:19.612Z,2.80
2018-02-21T00:44:48.692Z,2.80
2018-02-21T00:47:17.581Z,2.70
2018-02-21T00:49:45.133Z,2.60
2018-02-21T00:52:12.758Z,2.70
2018-02-21T00:54:40.918Z,2.70
2018-02-21T00:57:08.476Z,2.80
2018-02-21T00:59:37.156Z,2.80
2018-02-21T01:02:04.688Z,2.90
2018-02-21T01:04:32.545Z,3.00
2018-02-21T01:07:01.540Z,2.90
2018-02-21T01:09:29.103Z,2.90
2018-02-21T01:11:56.771Z,2.90
2018-02-21T01:14:24.376Z,2.90
2018-02-21T01:16:52.555Z,2.90
2018-02-21T01:19:20.365Z,2.90
2018-02-21T01:21:48.867Z,3.00
2018-02-21T01:24:16.424Z,2.90
2018-02-21T01:26:44.013Z,2.80
2018-02-21T01:29:11.716Z,2.60
2018-02-21T01:31:40.235Z,2.70
2018-02-21T01:34:08.437Z,2.60
2018-02-21T01:36:35.981Z,2.70
2018-02-21T01:39:04.584Z,2.80
2018-02-21T01:41:33.111Z,2.90
2018-02-21T01:44:00.772Z,2.90
2018-02-21T01:46:28.729Z,2.90
2018-02-21T01:48:56.478Z,2.80
2018-02-21T01:51:24.890Z,2.90
2018-02-21T01:53:52.479Z,2.90
2018-02-21T01:56:20.879Z,2.90
2018-02-21T01:58:49.281Z,2.90
2018-02-21T02:01:16.925Z,2.90
2018-02-21T02:03:44.449Z,2.90
2018-02-21T02:06:11.996Z,2.70
2018-02-21T02:08:40.215Z,2.50
2018-02-21T02:11:08.264Z,2.50
2018-02-21T02:13:36.570Z,2.50
2018-02-21T02:16:04.811Z,2.40
2018-02-21T02:18:32.371Z,2.40
2018-02-21T02:20:59.932Z,2.30
2018-02-21T02:23:27.692Z,2.30
2018-02-21T02:25:55.221Z,2.30
2018-02-21T02:28:23.499Z,2.40
2018-02-21T02:30:52.665Z,2.40
2018-02-21T02:33:21.077Z,2.30
2018-02-21T02:35:48.619Z,2.40
2018-02-21T02:38:29.004Z,2.40
2018-02-21T02:40:56.711Z,2.50
2018-02-21T02:43:24.284Z,2.40
2018-02-21T02:45:51.820Z,2.40
2018-02-21T02:48:19.978Z,2.40
2018-02-21T02:50:47.585Z,2.30
2018-02-21T02:53:16.062Z,2.30
2018-02-21T02:55:45.717Z,2.50
2018-02-21T02:58:14.516Z,2.50
2018-02-21T03:00:42.671Z,2.60
2018-02-21T03:03:10.231Z,2.70
2018-02-21T03:15:17.798Z,2.80
2018-02-21T03:17:45.365Z,2.30
2018-02-21T03:20:14.500Z,2.30
2018-02-21T03:22:43.056Z,2.20
2018-02-21T03:25:10.921Z,2.20
2018-02-21T03:27:38.538Z,2.30
2018-02-21T03:30:06.884Z,2.40
2018-02-21T03:32:34.570Z,2.40
2018-02-21T03:35:03.520Z,2.30
2018-02-21T03:37:31.031Z,2.40
2018-02-21T03:39:59.448Z,2.50
2018-02-21T03:42:28.257Z,2.50
2018-02-21T03:44:55.827Z,2.60
2018-02-21T03:47:23.357Z,2.60
2018-02-21T03:49:51.575Z,2.60
2018-02-21T03:52:19.093Z,2.50
2018-02-21T03:54:47.143Z,2.50
2018-02-21T03:57:14.734Z,2.50
2018-02-21T03:59:42.327Z,2.50
2018-02-21T04:02:09.847Z,2.40
2018-02-21T04:04:37.422Z,2.50
2018-02-21T04:07:05.891Z,2.50
2018-02-21T04:09:34.705Z,2.40
2018-02-21T04:12:02.558Z,2.30
2018-02-21T04:14:30.982Z,2.30
2018-02-21T04:16:59.143Z,2.40
2018-02-21T04:19:26.677Z,2.20
2018-02-21T04:34:49.271Z,1.90
2018-02-21T04:37:17.086Z,1.70
2018-02-21T04:39:44.638Z,1.70
2018-02-21T04:42:12.181Z,1.70
2018-02-21T04:44:40.639Z,1.90
2018-02-21T04:47:09.911Z,1.90
2018-02-21T04:49:39.178Z,1.90
2018-02-21T04:52:07.337Z,1.90
2018-02-21T04:57:46.251Z,2.10
2018-02-21T05:00:15.350Z,2.20
2018-02-21T05:02:44.592Z,2.40
2018-02-21T05:05:12.133Z,2.30
2018-02-21T05:07:39.943Z,2.40
2018-02-21T05:10:07.474Z,2.40
2018-02-21T05:12:35.838Z,2.30
2018-02-21T05:15:03.463Z,2.10
2018-02-21T05:17:31.912Z,2.10
2018-02-21T05:20:00.058Z,2.00
2018-02-21T05:22:27.868Z,2.00
2018-02-21T05:24:56.825Z,2.00
2018-02-21T05:27:24.987Z,1.80
2018-02-21T05:29:52.777Z,1.70
2018-02-21T05:32:21.132Z,1.80
2018-02-21T05:34:48.896Z,1.80
2018-02-21T05:37:16.456Z,1.70
2018-02-21T05:39:44.010Z,1.60
2018-02-21T05:42:11.831Z,1.60
2018-02-21T05:44:39.446Z,1.70
2018-02-21T05:47:07.726Z,1.40
2018-02-21T05:49:36.082Z,1.50
2018-02-21T05:52:03.636Z,1.40
2018-02-21T06:11:49.457Z,1.80
2018-02-21T06:14:18.176Z,1.70
2018-02-21T06:16:46.185Z,1.70
2018-02-21T06:19:13.733Z,1.80
2018-02-21T06:21:42.745Z,2.00
2018-02-21T06:24:10.340Z,2.00
2018-02-21T06:26:38.614Z,2.10
2018-02-21T06:29:06.836Z,2.10
2018-02-21T06:31:34.714Z,2.00
2018-02-21T06:34:02.965Z,1.80
2018-02-21T06:36:30.823Z,1.70
2018-02-21T06:38:58.562Z,1.70
2018-02-21T06:41:27.096Z,1.90
2018-02-21T06:43:54.646Z,2.00
2018-02-21T06:46:23.613Z,1.90
2018-02-21T06:48:51.873Z,1.70
2018-02-21T07:08:36.876Z,1.60
2018-02-21T07:11:04.440Z,1.70
2018-02-21T07:13:32.540Z,1.80
2018-02-21T07:16:00.121Z,1.90
2018-02-21T07:18:28.350Z,2.00
2018-02-21T07:20:56.869Z,1.80
2018-02-21T07:23:25.285Z,1.90
2018-02-21T07:25:54.656Z,1.90
2018-02-21T07:28:23.348Z,1.80
2018-02-21T07:30:51.555Z,1.80
2018-02-21T07:33:19.111Z,1.70
2018-02-21T07:35:46.996Z,1.50
2018-02-21T07:38:14.570Z,1.60
2018-02-21T07:40:42.936Z,1.60
2018-02-21T07:43:10.792Z,1.60
2018-02-21T07:45:39.235Z,1.70
2018-02-21T07:48:10.489Z,1.90
2018-02-21T07:50:38.551Z,1.90
2018-02-21T07:53:07.824Z,2.00
2018-02-21T07:55:36.474Z,1.90
2018-02-21T07:58:04.760Z,1.70
2018-02-21T08:00:32.304Z,1.70
2018-02-21T08:20:17.670Z,1.90
2018-02-21T08:22:46.924Z,1.80
2018-02-21T08:25:14.976Z,1.80
2018-02-21T08:27:42.532Z,1.90
2018-02-21T08:30:10.422Z,1.80
2018-02-21T08:32:38.043Z,1.80
2018-02-21T08:35:06.373Z,1.90
2018-02-21T08:37:34.543Z,2.00
2018-02-21T08:40:02.220Z,1.90
2018-02-21T08:42:30.276Z,1.90
2018-02-21T08:44:57.815Z,1.90
2018-02-21T08:47:25.586Z,2.00
2018-02-21T08:49:54.164Z,1.90
2018-02-21T08:52:22.229Z,2.00
2018-02-21T08:54:49.768Z,2.00
2018-02-21T08:57:19.194Z,2.10
2018-02-21T08:59:47.479Z,1.90
2018-02-21T09:02:15.627Z,2.00
2018-02-21T09:04:43.449Z,2.00
2018-02-21T09:07:11.817Z,2.10
2018-02-21T09:19:19.683Z,2.00
2018-02-21T09:21:47.914Z,1.90
2018-02-21T09:24:16.226Z,1.80
2018-02-21T09:26:44.608Z,1.80
2018-02-21T09:29:12.516Z,1.80
2018-02-21T09:31:40.288Z,1.80
2018-02-21T09:34:09.067Z,1.80
2018-02-21T09:36:36.630Z,2.00
2018-02-21T09:39:04.180Z,2.00
2018-02-21T09:41:31.903Z,2.10
2018-02-21T09:43:59.451Z,2.10
2018-02-21T09:46:27.049Z,2.20
2018-02-21T09:48:55.545Z,2.20
2018-02-21T09:51:23.094Z,2.30
2018-02-21T09:53:50.635Z,2.40
2018-02-21T09:56:18.244Z,2.50
2018-02-21T09:58:47.272Z,2.50
2018-02-21T10:01:14.826Z,2.50
2018-02-21T10:03:42.603Z,2.50
2018-02-21T10:06:10.625Z,2.50
2018-02-21T10:08:39.202Z,2.70
2018-02-21T10:11:09.410Z,2.70
2018-02-21T10:13:37.775Z,2.70
2018-02-21T10:16:05.386Z,2.80
2018-02-21T10:18:35.042Z,2.90
2018-02-21T10:21:03.547Z,3.00
2018-02-21T10:23:32.796Z,2.80
2018-02-21T10:26:00.587Z,2.80
2018-02-21T10:28:28.201Z,2.60
2018-02-21T10:30:56.049Z,2.60
2018-02-21T10:33:24.762Z,2.80
2018-02-21T10:35:52.454Z,2.70
2018-02-21T10:38:19.980Z,2.90
2018-02-21T10:40:47.534Z,2.80
2018-02-21T10:43:15.341Z,2.80
2018-02-21T10:45:44.563Z,2.80
2018-02-21T10:48:13.840Z,2.70
2018-02-21T10:50:42.068Z,2.70
2018-02-21T10:53:09.868Z,2.70
2018-02-21T10:55:37.737Z,2.70
2018-02-21T10:58:07.064Z,2.60
2018-02-21T11:00:40.756Z,2.50
2018-02-21T11:20:25.917Z,2.50
2018-02-21T11:22:53.632Z,2.60
2018-02-21T11:25:21.333Z,2.70
2018-02-21T11:27:50.057Z,2.60
2018-02-21T11:30:18.173Z,2.70
2018-02-21T11:32:47.017Z,2.90
2018-02-21T11:35:15.111Z,2.90
2018-02-21T11:37:43.610Z,2.80
2018-02-21T11:40:13.673Z,3.00
2018-02-21T11:42:41.245Z,3.10
2018-02-21T11:45:09.545Z,3.00
2018-02-21T11:47:37.359Z,3.00
2018-02-21T11:50:05.454Z,3.00
2018-02-21T11:52:33.343Z,2.80
2018-02-21T11:55:00.894Z,2.90
2018-02-21T11:57:29.444Z,3.00
2018-02-21T11:59:57.529Z,3.00
2018-02-21T12:02:25.891Z,3.10
2018-02-21T12:04:55.163Z,3.00
2018-02-21T12:07:23.475Z,2.90
2018-02-21T12:09:51.968Z,2.90
2018-02-21T12:12:19.748Z,2.80
2018-02-21T12:14:47.624Z,2.80
2018-02-21T12:17:16.103Z,2.90
2018-02-21T12:19:44.192Z,2.90
2018-02-21T12:22:11.931Z,2.90
2018-02-21T12:24:40.024Z,2.60
2018-02-21T12:27:07.629Z,2.50
2018-02-21T12:29:35.165Z,2.70
2018-02-21T12:32:18.528Z,2.80
2018-02-21T12:34:46.663Z,2.80
2018-02-21T12:37:14.644Z,2.80
2018-02-21T12:39:42.282Z,2.80
2018-02-21T12:42:10.315Z,2.80
2018-02-21T12:44:38.828Z,2.60
2018-02-21T12:47:07.132Z,2.60
2018-02-21T12:49:34.849Z,2.70
2018-02-21T12:52:02.459Z,2.70
2018-02-21T12:54:29.993Z,2.70
2018-02-21T12:56:58.437Z,2.80
2018-02-21T12:59:26.334Z,2.90
2018-02-21T13:01:53.872Z,2.90
2018-02-21T13:04:22.635Z,2.90
2018-02-21T13:06:50.255Z,2.90
2018-02-21T13:09:17.794Z,2.90
2018-02-21T13:11:45.548Z,3.00
2018-02-21T13:34:07.409Z,2.50
2018-02-21T13:36:35.550Z,2.50
2018-02-21T13:39:03.328Z,2.50
2018-02-21T13:41:30.908Z,2.50
2018-02-21T13:43:58.693Z,2.50
2018-02-21T13:46:26.782Z,2.50
2018-02-21T13:48:55.632Z,2.70
2018-02-21T13:51:23.179Z,2.70
2018-02-21T13:53:50.888Z,2.90
2018-02-21T13:56:18.446Z,2.80
2018-02-21T13:58:46.517Z,2.90
2018-02-21T14:01:15.408Z,2.80
2018-02-21T14:03:43.736Z,3.10
2018-02-21T14:06:11.269Z,3.10
2018-02-21T14:08:40.430Z,3.10
2018-02-21T14:11:08.154Z,3.10
2018-02-21T14:13:36.645Z,3.00
2018-02-21T14:16:05.930Z,3.00
2018-02-21T14:18:36.846Z,2.90
2018-02-21T14:38:23.200Z,2.90
2018-02-21T14:40:50.787Z,3.10
2018-02-21T14:43:18.351Z,3.10
2018-02-21T14:45:46.815Z,3.10
2018-02-21T14:48:14.345Z,3.20
2018-02-21T14:50:42.914Z,3.10
2018-02-21T14:53:11.296Z,3.30
2018-02-21T14:55:38.863Z,3.20
2018-02-21T14:58:07.713Z,3.30
2018-02-21T15:00:36.454Z,3.30
2018-02-21T15:03:04.089Z,3.30
2018-02-21T15:05:31.673Z,3.40
2018-02-21T15:07:59.292Z,3.30
2018-02-21T15:10:26.923Z,3.30
2018-02-21T15:12:54.504Z,3.30
2018-02-21T15:15:22.151Z,3.50
2018-02-21T15:17:49.727Z,3.50
2018-02-21T15:20:17.273Z,3.40
2018-02-21T15:22:45.703Z,3.50
2018-02-21T15:25:13.713Z,3.50
2018-02-21T15:27:41.292Z,3.50
2018-02-21T15:30:09.951Z,3.50
2018-02-21T15:32:37.723Z,3.60
2018-02-21T15:35:05.969Z,3.60
2018-02-21T15:37:33.808Z,3.60
2018-02-21T15:40:01.370Z,3.50
2018-02-21T15:42:28.944Z,3.60
2018-02-21T15:44:56.621Z,3.50
2018-02-21T15:47:25.001Z,3.40
2018-02-21T15:49:52.603Z,3.40
2018-02-21T15:52:20.247Z,3.40
2018-02-21T15:54:47.860Z,3.40
2018-02-21T15:57:16.246Z,3.30
2018-02-21T15:59:43.844Z,3.30
2018-02-21T16:02:12.245Z,3.40
2018-02-21T16:04:39.882Z,3.10
2018-02-21T16:07:07.502Z,3.00
2018-02-21T16:09:35.115Z,2.90
2018-02-21T16:12:02.674Z,2.90
2018-02-21T16:14:30.316Z,2.70
2018-02-21T16:16:57.877Z,2.60
2018-02-21T16:19:25.500Z,2.60
2018-02-21T16:21:53.090Z,2.70
2018-02-21T16:24:21.026Z,2.60
2018-02-21T16:26:48.654Z,2.50
2018-02-21T16:29:16.668Z,2.60
2018-02-21T16:31:44.806Z,2.60
2018-02-21T16:34:12.387Z,2.70
2018-02-21T16:36:40.050Z,2.70
2018-02-21T16:39:08.568Z,2.40
2018-02-21T16:41:36.938Z,2.40
2018-02-21T16:44:04.881Z,2.40
2018-02-21T16:46:32.506Z,2.20
2018-02-21T16:49:00.474Z,2.10
2018-02-21T16:51:28.047Z,1.90
2018-02-21T16:54:01.467Z,1.70
2018-02-21T16:56:29.155Z,1.60
2018-02-21T16:58:57.514Z,1.70
2018-02-21T17:01:25.163Z,1.80
2018-02-21T17:03:52.747Z,2.00
2018-02-21T17:06:28.225Z,2.00
2018-02-21T17:08:55.806Z,1.80
2018-02-21T17:11:23.536Z,1.70
2018-02-21T17:13:52.957Z,1.80
2018-02-21T17:16:20.535Z,1.80
2018-02-21T17:18:48.679Z,1.80
2018-02-21T17:21:16.750Z,1.70
2018-02-21T17:23:44.328Z,1.70
2018-02-21T17:26:12.233Z,1.90
2018-02-21T17:28:39.989Z,1.90
2018-02-21T17:31:07.634Z,2.00
2018-02-21T17:33:35.241Z,2.10
2018-02-21T17:36:03.206Z,2.00
2018-02-21T17:51:26.298Z,2.10
2018-02-21T17:53:53.845Z,1.30
2018-02-21T17:56:22.868Z,1.40
2018-02-21T17:58:51.188Z,1.40
2018-02-21T18:01:18.710Z,1.40
2018-02-21T18:03:46.279Z,1.40
2018-02-21T18:06:13.850Z,1.40
2018-02-21T18:08:41.398Z,1.30
2018-02-21T18:11:08.953Z,1.50
2018-02-21T18:13:36.539Z,1.60
2018-02-21T18:16:04.204Z,1.70
2018-02-21T18:18:32.616Z,1.80
2018-02-21T18:21:00.259Z,1.90
2018-02-21T18:23:27.836Z,1.90
2018-02-21T18:25:55.912Z,1.80
2018-02-21T18:28:23.471Z,1.90
2018-02-21T18:30:51.054Z,2.00
2018-02-21T18:33:19.059Z,2.00
2018-02-21T18:35:46.679Z,2.10
2018-02-21T18:38:14.249Z,2.10
2018-02-21T18:40:41.814Z,2.30
2018-02-21T18:43:09.486Z,2.30
2018-02-21T18:45:39.616Z,2.30
2018-02-21T18:48:07.198Z,2.40
2018-02-21T18:50:34.802Z,2.40
2018-02-21T18:53:02.357Z,2.50
2018-02-21T18:55:29.921Z,2.50
2018-02-21T18:57:57.481Z,2.40
2018-02-21T19:00:25.127Z,2.30
2018-02-21T19:02:53.441Z,2.40
2018-02-21T19:05:21.046Z,2.40
2018-02-21T19:07:48.576Z,2.50
2018-02-21T19:10:16.135Z,2.50
2018-02-21T19:12:44.539Z,2.40
2018-02-21T19:15:12.115Z,2.30
2018-02-21T19:17:40.480Z,2.30
2018-02-21T19:20:09.124Z,2.30
2018-02-21T19:22:37.285Z,2.20
2018-02-21T19:25:04.911Z,2.20
2018-02-21T19:27:33.299Z,2.10
2018-02-21T19:30:00.892Z,2.10
2018-02-21T19:32:28.692Z,2.10
2018-02-21T19:34:56.232Z,2.10
2018-02-21T19:37:23.795Z,2.10
2018-02-21T19:39:52.248Z,2.00
2018-02-21T19:42:20.287Z,2.00
2018-02-21T19:44:47.869Z,1.90
2018-02-21T19:47:15.436Z,2.00
2018-02-21T19:49:43.035Z,2.10
2018-02-21T19:52:10.672Z,2.10
2018-02-21T19:54:38.219Z,2.10
2018-02-21T19:57:06.516Z,2.10
2018-02-21T19:59:34.076Z,2.00
2018-02-21T20:02:02.359Z,1.90
2018-02-21T20:04:29.949Z,1.80
2018-02-21T20:06:57.535Z,1.90
2018-02-21T20:09:25.568Z,1.90
2018-02-21T20:11:53.102Z,1.90
2018-02-21T20:14:21.530Z,1.80
2018-02-21T20:16:49.123Z,1.80
2018-02-21T20:19:16.849Z,1.80
2018-02-21T20:21:45.017Z,1.80
2018-02-21T20:24:12.555Z,1.80
2018-02-21T20:26:40.181Z,1.80
2018-02-21T20:29:08.479Z,1.80
2018-02-21T20:31:36.107Z,1.90
2018-02-21T20:34:03.727Z,1.90
2018-02-21T20:36:31.840Z,1.90
2018-02-21T20:39:00.496Z,2.00
2018-02-21T20:41:28.407Z,2.00
2018-02-21T20:43:55.936Z,2.00
2018-02-21T20:46:23.530Z,1.90
2018-02-21T20:48:51.072Z,2.00
2018-02-21T20:51:19.420Z,2.00
2018-02-21T20:53:47.019Z,2.00
2018-02-21T20:56:14.568Z,2.10
2018-02-21T20:58:42.901Z,2.20
2018-02-21T21:01:10.874Z,2.20
2018-02-21T21:03:38.465Z,2.20
2018-02-21T21:06:06.674Z,2.20
2018-02-21T21:08:34.247Z,2.20
2018-02-21T21:11:03.909Z,2.20
2018-02-21T21:13:31.468Z,2.30
2018-02-21T21:15:59.050Z,2.30
2018-02-21T21:18:26.625Z,2.30
2018-02-21T21:20:54.156Z,2.30
2018-02-21T21:23:21.696Z,2.20
2018-02-21T21:25:50.315Z,2.20
2018-02-21T21:28:17.873Z,2.20
2018-02-21T21:30:46.866Z,2.10
2018-02-21T21:33:14.479Z,2.10
2018-02-21T21:35:42.142Z,2.10
2018-02-21T21:38:09.975Z,2.00
2018-02-21T21:40:37.777Z,2.00
2018-02-21T21:43:05.337Z,2.10
2018-02-21T21:45:32.871Z,2.10
2018-02-21T21:48:00.660Z,2.00
2018-02-21T21:50:28.197Z,2.00
2018-02-21T21:52:56.382Z,1.90
2018-02-21T21:55:24.085Z,1.90
2018-02-21T21:57:51.681Z,1.90
2018-02-21T22:00:19.245Z,1.90
2018-02-21T22:02:47.601Z,1.90
2018-02-21T22:05:16.065Z,1.90
2018-02-21T22:07:43.600Z,1.80
2018-02-21T22:10:11.172Z,2.00
2018-02-21T22:12:38.944Z,1.90
2018-02-21T22:15:06.998Z,1.90
2018-02-21T22:17:34.533Z,2.00
2018-02-21T22:20:02.774Z,1.90
2018-02-21T22:22:30.892Z,1.90
2018-02-21T22:24:58.447Z,1.80
2018-02-21T22:27:26.219Z,1.80
2018-02-21T22:29:53.781Z,1.90
2018-02-21T22:32:21.344Z,2.00
2018-02-21T22:34:49.917Z,1.90
2018-02-21T22:37:18.268Z,1.90
2018-02-21T22:39:45.849Z,1.90
2018-02-21T22:42:13.946Z,1.90
2018-02-21T22:44:41.705Z,1.90
2018-02-21T22:47:09.254Z,1.80
2018-02-21T22:49:36.845Z,1.80
2018-02-21T22:52:04.416Z,1.90
2018-02-21T22:54:33.647Z,1.80
2018-02-21T22:57:01.249Z,1.80
2018-02-21T22:59:28.827Z,1.70
2018-02-21T23:01:56.971Z,1.80
2018-02-21T23:04:24.971Z,1.90
2018-02-21T23:06:53.292Z,1.80
2018-02-21T23:09:21.310Z,1.80
2018-02-21T23:11:48.939Z,1.70
2018-02-21T23:14:16.484Z,1.80
2018-02-21T23:16:45.010Z,1.80
2018-02-21T23:19:13.413Z,1.90
2018-02-21T23:21:41.003Z,1.90
2018-02-21T23:24:08.584Z,2.00
2018-02-21T23:26:36.161Z,1.90
2018-02-21T23:29:04.186Z,1.90
2018-02-21T23:31:31.726Z,1.80
2018-02-21T23:33:59.302Z,1.90
2018-02-21T23:36:26.846Z,1.70
2018-02-21T23:38:55.204Z,1.80
2018-02-21T23:41:22.837Z,1.80
2018-02-21T23:43:50.365Z,1.70
2018-02-21T23:46:17.909Z,1.80
2018-02-21T23:48:46.258Z,1.80
2018-02-21T23:51:13.812Z,1.80
2018-02-21T23:53:42.131Z,1.80
2018-02-21T23:56:11.397Z,2.00
2018-02-21T23:58:38.993Z,1.90
